createdAt,value
2019-02-27T00:01:28.634Z,99.90
2019-02-27T00:03:54.763Z,99.90
2019-02-27T00:06:22.712Z,99.90
2019-02-27T00:08:48.938Z,99.90
2019-02-27T00:11:15.185Z,99.90
2019-02-27T00:13:41.476Z,99.90
2019-02-27T00:16:10.852Z,99.90
2019-02-27T00:18:35.670Z,99.90
2019-02-27T00:21:02.020Z,99.90
2019-02-27T00:23:28.203Z,99.90
2019-02-27T00:25:54.369Z,99.90
2019-02-27T00:28:23.194Z,99.90
2019-02-27T00:30:48.530Z,99.90
2019-02-27T00:33:14.654Z,99.90
2019-02-27T00:35:40.790Z,99.90
2019-02-27T00:38:06.890Z,99.90
2019-02-27T00:40:33.150Z,99.90
2019-02-27T00:42:59.326Z,99.90
2019-02-27T00:45:25.928Z,99.90
2019-02-27T00:47:53.308Z,99.90
2019-02-27T00:50:20.076Z,99.90
2019-02-27T00:52:46.204Z,99.90
2019-02-27T00:55:12.458Z,99.90
2019-02-27T00:57:38.628Z,99.90
2019-02-27T01:00:13.574Z,99.90
2019-02-27T01:02:39.754Z,99.90
2019-02-27T01:05:09.097Z,99.90
2019-02-27T01:07:34.917Z,99.90
2019-02-27T01:10:02.196Z,99.90
2019-02-27T01:12:28.334Z,99.90
2019-02-27T01:14:54.463Z,99.90
2019-02-27T01:17:20.914Z,99.90
2019-02-27T01:19:48.688Z,99.90
2019-02-27T01:22:14.919Z,99.90
2019-02-27T01:24:40.987Z,99.90
2019-02-27T01:27:07.099Z,99.90
2019-02-27T01:29:33.224Z,99.90
2019-02-27T01:31:59.416Z,99.90
2019-02-27T01:34:25.696Z,99.90
2019-02-27T01:36:51.927Z,99.90
2019-02-27T01:39:18.158Z,99.90
2019-02-27T01:41:44.294Z,99.90
2019-02-27T01:44:11.144Z,99.90
2019-02-27T01:46:38.613Z,99.90
2019-02-27T01:49:04.732Z,99.90
2019-02-27T01:51:30.956Z,99.90
2019-02-27T01:53:57.200Z,99.90
2019-02-27T01:56:23.357Z,99.90
2019-02-27T01:58:49.563Z,99.90
2019-02-27T02:01:15.671Z,99.90
2019-02-27T02:03:47.220Z,99.90
2019-02-27T02:06:11.215Z,99.90
2019-02-27T02:08:37.377Z,99.90
2019-02-27T02:11:03.504Z,99.90
2019-02-27T02:13:36.799Z,99.90
2019-02-27T02:16:12.343Z,99.90
2019-02-27T02:18:57.145Z,99.90
2019-02-27T02:21:34.347Z,99.90
2019-02-27T02:24:24.918Z,99.90
2019-02-27T02:27:30.361Z,99.90
2019-02-27T02:30:16.842Z,99.90
2019-02-27T02:32:53.305Z,99.90
2019-02-27T02:35:51.117Z,99.90
2019-02-27T02:38:42.466Z,99.90
2019-02-27T02:41:18.548Z,99.90
2019-02-27T02:43:57.605Z,99.90
2019-02-27T02:46:49.216Z,99.90
2019-02-27T02:49:43.910Z,99.90
2019-02-27T02:52:29.450Z,99.90
2019-02-27T02:55:14.523Z,99.90
2019-02-27T02:58:01.485Z,99.90
2019-02-27T03:00:49.836Z,99.90
2019-02-27T03:03:25.470Z,99.90
2019-02-27T03:06:07.498Z,99.90
2019-02-27T03:08:55.296Z,99.90
2019-02-27T03:11:29.100Z,99.90
2019-02-27T03:14:17.280Z,99.90
2019-02-27T03:17:18.416Z,99.90
2019-02-27T03:19:48.064Z,99.90
2019-02-27T03:22:20.752Z,99.90
2019-02-27T03:24:56.327Z,99.90
2019-02-27T03:27:30.599Z,99.90
2019-02-27T03:30:33.974Z,99.90
2019-02-27T03:33:24.441Z,99.90
2019-02-27T03:36:08.789Z,99.90
2019-02-27T03:38:44.512Z,99.90
2019-02-27T03:41:29.739Z,99.90
2019-02-27T03:44:02.523Z,99.90
2019-02-27T03:46:32.504Z,99.90
2019-02-27T03:49:05.608Z,99.90
2019-02-27T03:51:44.170Z,99.90
2019-02-27T03:54:30.712Z,99.90
2019-02-27T03:57:23.268Z,99.90
2019-02-27T04:00:08.158Z,99.90
2019-02-27T04:02:49.841Z,99.90
2019-02-27T04:05:40.967Z,99.90
2019-02-27T04:08:25.104Z,99.90
2019-02-27T04:10:51.173Z,99.90
2019-02-27T04:13:17.279Z,99.90
2019-02-27T04:15:43.459Z,99.90
2019-02-27T04:18:09.342Z,99.90
2019-02-27T04:20:35.429Z,99.90
2019-02-27T04:23:01.535Z,99.90
2019-02-27T04:25:31.143Z,99.90
2019-02-27T04:27:56.365Z,99.90
2019-02-27T04:30:22.722Z,99.90
2019-02-27T04:32:49.032Z,99.90
2019-02-27T04:35:15.307Z,99.90
2019-02-27T04:37:41.426Z,99.90
2019-02-27T04:40:10.833Z,99.90
2019-02-27T04:42:35.643Z,99.90
2019-02-27T04:45:02.030Z,99.90
2019-02-27T04:47:29.247Z,99.90
2019-02-27T04:49:56.014Z,99.90
2019-02-27T04:52:24.371Z,99.90
2019-02-27T04:54:50.120Z,99.90
2019-02-27T04:57:16.219Z,99.90
2019-02-27T04:59:42.343Z,99.90
2019-02-27T05:02:08.471Z,99.90
2019-02-27T05:04:35.286Z,99.90
2019-02-27T05:07:02.965Z,99.90
2019-02-27T05:09:31.350Z,99.90
2019-02-27T05:11:57.790Z,99.90
2019-02-27T05:14:24.840Z,99.90
2019-02-27T05:16:51.910Z,99.90
2019-02-27T05:19:18.035Z,99.90
2019-02-27T05:21:44.277Z,99.90
2019-02-27T05:24:13.210Z,99.90
2019-02-27T05:26:40.262Z,99.90
2019-02-27T05:29:07.208Z,99.90
2019-02-27T05:31:35.478Z,99.90
2019-02-27T05:34:01.718Z,99.90
2019-02-27T05:36:29.008Z,99.90
2019-02-27T05:38:56.281Z,99.90
2019-02-27T05:41:22.863Z,99.90
2019-02-27T05:43:49.202Z,99.90
2019-02-27T05:46:15.817Z,99.90
2019-02-27T05:48:42.261Z,99.90
2019-02-27T05:51:10.110Z,99.90
2019-02-27T05:53:36.360Z,99.90
2019-02-27T05:56:02.729Z,99.90
2019-02-27T05:58:28.934Z,99.90
2019-02-27T06:00:55.025Z,99.90
2019-02-27T06:03:21.171Z,99.90
2019-02-27T06:05:49.730Z,99.90
2019-02-27T06:08:15.308Z,99.90
2019-02-27T06:10:41.415Z,99.90
2019-02-27T06:13:07.521Z,99.90
2019-02-27T06:15:33.711Z,99.90
2019-02-27T06:17:59.975Z,99.90
2019-02-27T06:20:26.388Z,99.90
2019-02-27T06:22:52.676Z,99.90
2019-02-27T06:25:23.338Z,99.90
2019-02-27T06:27:48.347Z,99.90
2019-02-27T06:30:16.461Z,99.90
2019-02-27T06:32:42.578Z,99.90
2019-02-27T06:35:11.363Z,99.90
2019-02-27T06:37:37.523Z,99.90
2019-02-27T06:40:14.855Z,99.90
2019-02-27T06:42:41.065Z,99.90
2019-02-27T06:45:12.705Z,99.90
2019-02-27T06:47:39.381Z,99.90
2019-02-27T06:50:08.669Z,99.90
2019-02-27T06:52:34.809Z,99.90
2019-02-27T06:55:01.010Z,99.90
2019-02-27T06:57:27.117Z,99.90
2019-02-27T06:59:53.193Z,99.90
2019-02-27T07:02:21.719Z,99.90
2019-02-27T07:04:47.289Z,99.90
2019-02-27T07:07:13.424Z,99.90
2019-02-27T07:09:39.547Z,99.90
2019-02-27T07:12:07.242Z,99.90
2019-02-27T07:14:33.714Z,99.90
2019-02-27T07:16:59.947Z,99.90
2019-02-27T07:19:26.139Z,99.90
2019-02-27T07:21:52.217Z,99.90
2019-02-27T07:24:18.359Z,99.90
2019-02-27T07:26:44.466Z,99.90
2019-02-27T07:29:10.560Z,99.90
2019-02-27T07:31:36.639Z,99.90
2019-02-27T07:34:02.881Z,99.90
2019-02-27T07:36:28.951Z,99.90
2019-02-27T07:38:57.646Z,99.90
2019-02-27T07:41:23.069Z,99.90
2019-02-27T07:43:49.170Z,99.90
2019-02-27T07:46:15.407Z,99.90
2019-02-27T07:48:41.571Z,99.90
2019-02-27T07:51:07.724Z,99.90
2019-02-27T07:53:33.898Z,99.90
2019-02-27T07:56:00.021Z,99.90
2019-02-27T07:58:26.230Z,99.90
2019-02-27T08:00:52.326Z,99.90
2019-02-27T08:03:18.450Z,99.90
2019-02-27T08:05:44.606Z,99.90
2019-02-27T08:08:10.739Z,99.90
2019-02-27T08:10:37.484Z,99.90
2019-02-27T08:13:03.858Z,99.90
2019-02-27T08:15:30.434Z,99.90
2019-02-27T08:17:57.932Z,99.90
2019-02-27T08:20:24.756Z,99.90
2019-02-27T08:22:51.041Z,99.90
2019-02-27T08:25:17.754Z,99.90
2019-02-27T08:27:44.054Z,99.90
2019-02-27T08:30:18.568Z,99.90
2019-02-27T08:32:44.975Z,99.90
2019-02-27T08:35:11.120Z,99.90
2019-02-27T08:37:37.248Z,99.90
2019-02-27T08:40:08.954Z,99.90
2019-02-27T08:42:37.330Z,99.90
2019-02-27T08:45:05.194Z,99.90
2019-02-27T08:47:31.320Z,99.90
2019-02-27T08:49:57.998Z,99.90
2019-02-27T08:52:24.856Z,99.90
2019-02-27T08:54:51.066Z,99.90
2019-02-27T08:57:17.136Z,99.90
2019-02-27T08:59:43.297Z,99.90
2019-02-27T09:02:09.467Z,99.90
2019-02-27T09:04:35.704Z,99.90
2019-02-27T09:07:02.737Z,99.90
2019-02-27T09:09:29.720Z,99.90
2019-02-27T09:11:55.852Z,99.90
2019-02-27T09:14:21.932Z,99.90
2019-02-27T09:16:48.039Z,99.90
2019-02-27T09:21:40.486Z,99.90
2019-02-27T09:24:06.608Z,99.90
2019-02-27T09:26:36.075Z,99.90
2019-02-27T09:29:00.780Z,99.90
2019-02-27T09:31:26.926Z,99.90
2019-02-27T09:33:53.324Z,99.90
2019-02-27T09:36:20.160Z,99.90
2019-02-27T09:38:46.230Z,99.90
2019-02-27T09:41:12.991Z,99.90
2019-02-27T09:43:39.461Z,99.90
2019-02-27T09:46:06.327Z,99.90
2019-02-27T09:48:33.427Z,99.90
2019-02-27T09:51:00.315Z,99.90
2019-02-27T09:53:26.527Z,99.90
2019-02-27T09:55:54.395Z,99.90
2019-02-27T09:58:22.526Z,99.90
2019-02-27T10:00:59.201Z,99.90
2019-02-27T10:03:23.468Z,99.90
2019-02-27T10:05:49.787Z,99.90
2019-02-27T10:08:16.065Z,99.90
2019-02-27T10:10:44.721Z,99.90
2019-02-27T10:13:10.339Z,99.90
2019-02-27T10:15:36.719Z,99.90
2019-02-27T10:18:03.054Z,99.90
2019-02-27T10:20:29.430Z,99.90
2019-02-27T10:22:55.571Z,99.90
2019-02-27T10:25:21.855Z,98.50
2019-02-27T10:27:48.253Z,98.00
2019-02-27T10:30:16.730Z,98.50
2019-02-27T10:32:42.974Z,97.40
2019-02-27T10:35:10.314Z,94.20
2019-02-27T10:37:36.624Z,93.70
2019-02-27T10:40:20.177Z,93.50
2019-02-27T10:42:46.286Z,92.90
2019-02-27T10:45:13.376Z,91.70
2019-02-27T10:47:39.977Z,91.90
2019-02-27T10:50:08.863Z,91.40
2019-02-27T10:52:34.985Z,92.10
2019-02-27T10:55:01.153Z,90.60
2019-02-27T10:57:31.465Z,90.30
2019-02-27T10:59:55.281Z,89.50
2019-02-27T11:02:23.441Z,86.40
2019-02-27T11:04:50.138Z,87.60
2019-02-27T11:07:16.797Z,86.30
2019-02-27T11:09:43.178Z,85.70
2019-02-27T11:12:09.321Z,84.50
2019-02-27T11:14:35.649Z,86.90
2019-02-27T11:17:02.741Z,86.10
2019-02-27T11:19:29.576Z,85.70
2019-02-27T11:21:58.388Z,83.40
2019-02-27T11:24:24.776Z,82.90
2019-02-27T11:26:51.199Z,80.10
2019-02-27T11:29:17.274Z,82.40
2019-02-27T11:31:45.458Z,79.20
2019-02-27T11:34:11.615Z,79.60
2019-02-27T11:36:38.896Z,80.10
2019-02-27T11:39:05.935Z,78.70
2019-02-27T11:41:32.019Z,78.20
2019-02-27T11:43:58.165Z,78.00
2019-02-27T11:46:24.294Z,78.10
2019-02-27T11:48:50.495Z,76.20
2019-02-27T11:51:17.518Z,75.70
2019-02-27T11:53:44.652Z,77.10
2019-02-27T11:56:10.778Z,71.10
2019-02-27T11:58:38.354Z,71.30
2019-02-27T12:01:05.383Z,73.00
2019-02-27T12:03:31.486Z,71.60
2019-02-27T12:05:57.633Z,71.80
2019-02-27T12:08:25.830Z,72.60
2019-02-27T12:10:51.875Z,72.50
2019-02-27T12:13:18.240Z,72.00
2019-02-27T12:15:44.572Z,72.10
2019-02-27T12:18:10.753Z,72.20
2019-02-27T12:20:36.987Z,73.80
2019-02-27T12:23:03.483Z,75.10
2019-02-27T12:25:30.240Z,75.10
2019-02-27T12:27:56.693Z,75.30
2019-02-27T12:30:24.795Z,75.30
2019-02-27T12:32:55.691Z,73.10
2019-02-27T12:35:25.855Z,74.20
2019-02-27T12:37:52.148Z,73.20
2019-02-27T12:40:23.920Z,76.20
2019-02-27T12:42:49.785Z,75.70
2019-02-27T12:45:18.213Z,75.80
2019-02-27T12:47:44.533Z,76.40
2019-02-27T12:50:13.564Z,74.90
2019-02-27T12:52:44.343Z,75.10
2019-02-27T12:55:08.433Z,77.00
2019-02-27T12:57:34.638Z,76.80
2019-02-27T13:00:00.839Z,76.30
2019-02-27T13:02:35.508Z,77.20
2019-02-27T13:04:55.104Z,75.60
2019-02-27T13:07:21.174Z,74.50
2019-02-27T13:09:47.300Z,75.30
2019-02-27T13:12:14.902Z,75.20
2019-02-27T13:14:41.382Z,73.80
2019-02-27T13:17:07.465Z,72.50
2019-02-27T13:19:33.600Z,76.50
2019-02-27T13:21:59.984Z,75.30
2019-02-27T13:24:26.090Z,74.50
2019-02-27T13:26:52.233Z,74.80
2019-02-27T13:29:20.539Z,73.30
2019-02-27T13:31:48.451Z,73.00
2019-02-27T13:34:14.631Z,73.60
2019-02-27T13:36:40.808Z,72.90
2019-02-27T13:39:07.248Z,71.70
2019-02-27T13:41:33.402Z,71.40
2019-02-27T13:44:01.450Z,72.10
2019-02-27T13:46:27.612Z,71.50
2019-02-27T13:48:53.690Z,70.40
2019-02-27T13:51:19.804Z,69.40
2019-02-27T13:53:45.946Z,69.80
2019-02-27T13:56:12.099Z,70.50
2019-02-27T13:58:38.261Z,71.50
2019-02-27T14:01:05.160Z,71.20
2019-02-27T14:03:31.264Z,71.20
2019-02-27T14:05:57.409Z,71.20
2019-02-27T14:08:23.743Z,70.10
2019-02-27T14:10:50.532Z,69.60
2019-02-27T14:13:17.963Z,67.90
2019-02-27T14:15:44.065Z,67.90
2019-02-27T14:18:10.233Z,68.40
2019-02-27T14:20:36.667Z,67.20
2019-02-27T14:23:03.148Z,66.60
2019-02-27T14:25:33.074Z,66.30
2019-02-27T14:27:58.689Z,65.70
2019-02-27T14:30:31.419Z,64.40
2019-02-27T14:32:57.556Z,61.80
2019-02-27T14:35:23.973Z,60.80
2019-02-27T14:37:51.135Z,59.30
2019-02-27T14:40:19.302Z,57.80
2019-02-27T14:42:45.628Z,56.00
2019-02-27T14:45:14.070Z,55.90
2019-02-27T14:47:40.708Z,53.60
2019-02-27T14:50:10.535Z,52.90
2019-02-27T14:52:36.711Z,52.60
2019-02-27T14:55:04.582Z,52.40
2019-02-27T14:57:37.996Z,51.40
2019-02-27T15:00:24.401Z,52.70
2019-02-27T15:02:52.109Z,52.20
2019-02-27T15:05:18.586Z,51.30
2019-02-27T15:07:44.955Z,51.60
2019-02-27T15:10:13.907Z,51.90
2019-02-27T15:12:40.171Z,51.70
2019-02-27T15:15:12.849Z,51.30
2019-02-27T15:17:39.182Z,52.20
2019-02-27T15:20:17.968Z,52.00
2019-02-27T15:22:44.381Z,52.30
2019-02-27T15:25:30.383Z,52.00
2019-02-27T15:27:58.879Z,52.00
2019-02-27T15:30:28.337Z,51.80
2019-02-27T15:32:54.705Z,52.50
2019-02-27T15:35:22.133Z,53.00
2019-02-27T15:37:48.797Z,52.80
2019-02-27T15:40:19.805Z,52.40
2019-02-27T15:42:46.147Z,53.00
2019-02-27T15:45:15.320Z,53.30
2019-02-27T15:47:43.710Z,53.30
2019-02-27T15:50:12.635Z,53.30
2019-02-27T15:52:40.632Z,54.30
2019-02-27T15:55:08.545Z,56.10
2019-02-27T15:57:34.734Z,57.90
2019-02-27T16:00:00.831Z,60.40
2019-02-27T16:02:29.198Z,63.50
2019-02-27T16:04:55.516Z,66.00
2019-02-27T16:07:22.475Z,67.70
2019-02-27T16:09:48.719Z,69.20
2019-02-27T16:12:14.803Z,70.00
2019-02-27T16:14:42.838Z,71.70
2019-02-27T16:17:08.948Z,72.10
2019-02-27T16:19:35.050Z,73.70
2019-02-27T16:22:01.285Z,75.10
2019-02-27T16:24:27.619Z,76.30
2019-02-27T16:26:53.765Z,74.70
2019-02-27T16:29:22.805Z,74.70
2019-02-27T16:31:48.210Z,76.00
2019-02-27T16:34:14.342Z,77.40
2019-02-27T16:36:40.629Z,76.70
2019-02-27T16:39:08.327Z,76.20
2019-02-27T16:41:34.691Z,77.10
2019-02-27T16:44:00.929Z,77.30
2019-02-27T16:46:27.113Z,77.30
2019-02-27T16:48:53.213Z,77.10
2019-02-27T16:51:19.421Z,78.50
2019-02-27T16:53:45.579Z,78.90
2019-02-27T16:56:12.843Z,79.60
2019-02-27T16:58:39.137Z,80.10
2019-02-27T17:01:06.835Z,79.60
2019-02-27T17:03:32.995Z,80.00
2019-02-27T17:05:59.286Z,79.70
2019-02-27T17:08:25.477Z,80.20
2019-02-27T17:10:52.085Z,80.70
2019-02-27T17:13:18.815Z,81.00
2019-02-27T17:15:45.038Z,83.20
2019-02-27T17:18:12.765Z,84.50
2019-02-27T17:20:39.096Z,86.10
2019-02-27T17:23:10.446Z,87.10
2019-02-27T17:25:33.294Z,87.20
2019-02-27T17:27:59.383Z,88.40
2019-02-27T17:30:37.776Z,89.40
2019-02-27T17:33:04.102Z,90.10
2019-02-27T17:35:31.327Z,91.40
2019-02-27T17:37:59.336Z,91.60
2019-02-27T17:40:25.566Z,91.60
2019-02-27T17:42:53.611Z,92.20
2019-02-27T17:45:24.045Z,92.80
2019-02-27T17:47:50.558Z,92.90
2019-02-27T17:50:17.170Z,93.60
2019-02-27T17:52:48.550Z,94.00
2019-02-27T17:55:13.453Z,94.00
2019-02-27T17:57:40.014Z,94.80
2019-02-27T18:00:10.011Z,96.10
2019-02-27T18:02:36.186Z,96.40
2019-02-27T18:05:04.231Z,97.10
2019-02-27T18:07:34.311Z,97.80
2019-02-27T18:10:01.161Z,99.20
2019-02-27T18:12:26.930Z,99.90
2019-02-27T18:14:53.960Z,99.90
2019-02-27T18:17:20.080Z,99.90
2019-02-27T18:19:47.312Z,99.90
2019-02-27T18:22:14.790Z,99.90
2019-02-27T18:24:40.969Z,99.90
2019-02-27T18:27:07.145Z,99.90
2019-02-27T18:29:34.158Z,99.90
2019-02-27T18:32:06.146Z,99.90
2019-02-27T18:34:28.326Z,99.90
2019-02-27T18:36:54.442Z,99.90
2019-02-27T18:39:20.627Z,99.90
2019-02-27T18:41:46.718Z,99.90
2019-02-27T18:44:12.904Z,99.90
2019-02-27T18:46:39.134Z,99.90
2019-02-27T18:49:05.222Z,99.90
2019-02-27T18:51:33.196Z,99.90
2019-02-27T18:53:59.532Z,99.90
2019-02-27T18:56:25.712Z,99.90
2019-02-27T18:58:51.981Z,99.90
2019-02-27T19:01:20.391Z,99.90
2019-02-27T19:03:47.633Z,99.90
2019-02-27T19:06:14.023Z,99.90
2019-02-27T19:08:40.154Z,99.90
2019-02-27T19:11:06.497Z,99.90
2019-02-27T19:13:32.578Z,99.90
2019-02-27T19:15:58.924Z,99.90
2019-02-27T19:18:25.175Z,99.90
2019-02-27T19:20:51.463Z,99.90
2019-02-27T19:23:18.452Z,99.90
2019-02-27T19:25:44.938Z,99.90
2019-02-27T19:28:11.249Z,99.90
2019-02-27T19:30:38.764Z,99.90
2019-02-27T19:33:05.574Z,99.90
2019-02-27T19:35:31.767Z,99.90
2019-02-27T19:37:58.020Z,99.90
2019-02-27T19:40:24.305Z,99.90
2019-02-27T19:42:59.469Z,99.90
2019-02-27T19:45:26.000Z,99.90
2019-02-27T19:47:54.577Z,99.90
2019-02-27T19:50:20.524Z,99.90
2019-02-27T19:52:46.867Z,99.90
2019-02-27T19:55:13.559Z,99.90
2019-02-27T19:57:42.343Z,99.90
2019-02-27T20:00:14.780Z,99.90
2019-02-27T20:02:40.974Z,99.90
2019-02-27T20:05:07.331Z,99.90
2019-02-27T20:07:35.810Z,99.90
2019-02-27T20:10:02.634Z,99.90
2019-02-27T20:12:28.952Z,99.90
2019-02-27T20:14:55.282Z,99.90
2019-02-27T20:17:21.510Z,99.90
2019-02-27T20:19:48.431Z,99.90
2019-02-27T20:22:15.383Z,99.90
2019-02-27T20:24:43.186Z,99.90
2019-02-27T20:27:09.659Z,99.90
2019-02-27T20:29:39.462Z,99.90
2019-02-27T20:32:03.792Z,99.90
2019-02-27T20:34:29.902Z,99.90
2019-02-27T20:36:56.291Z,99.90
2019-02-27T20:39:23.416Z,99.90
2019-02-27T20:41:50.573Z,99.90
2019-02-27T20:44:16.743Z,99.90
2019-02-27T20:46:42.901Z,99.90
2019-02-27T20:49:10.387Z,99.90
2019-02-27T20:51:39.996Z,99.90
2019-02-27T20:54:05.378Z,99.90
2019-02-27T20:56:32.307Z,99.90
2019-02-27T20:58:58.558Z,99.90
2019-02-27T21:01:24.769Z,99.90
2019-02-27T21:03:51.002Z,99.90
2019-02-27T21:06:17.679Z,99.90
2019-02-27T21:08:43.899Z,99.90
2019-02-27T21:11:10.127Z,99.90
2019-02-27T21:13:36.488Z,99.90
2019-02-27T21:16:04.370Z,99.90
2019-02-27T21:18:32.680Z,99.90
2019-02-27T21:20:58.824Z,99.90
2019-02-27T21:23:25.068Z,99.90
2019-02-27T21:25:51.283Z,99.90
2019-02-27T21:28:20.864Z,99.90
2019-02-27T21:30:45.429Z,99.90
2019-02-27T21:33:12.037Z,99.90
2019-02-27T21:35:38.322Z,99.90
2019-02-27T21:38:04.657Z,99.90
2019-02-27T21:40:33.446Z,99.90
2019-02-27T21:42:59.043Z,99.90
2019-02-27T21:45:25.298Z,99.90
2019-02-27T21:47:52.724Z,99.90
2019-02-27T21:50:21.932Z,99.90
2019-02-27T21:52:48.184Z,99.90
2019-02-27T21:55:15.031Z,99.90
2019-02-27T21:57:41.260Z,99.90
2019-02-27T22:00:21.014Z,99.90
2019-02-27T22:02:47.206Z,99.90
2019-02-27T22:05:18.469Z,99.90
2019-02-27T22:07:41.539Z,99.90
2019-02-27T22:10:12.880Z,99.90
2019-02-27T22:12:39.117Z,99.90
2019-02-27T22:15:11.076Z,99.90
2019-02-27T22:17:37.626Z,99.90
2019-02-27T22:20:05.831Z,99.90
2019-02-27T22:22:31.984Z,99.90
2019-02-27T22:24:58.214Z,99.90
2019-02-27T22:27:24.369Z,99.90
2019-02-27T22:29:50.560Z,99.90
2019-02-27T22:32:16.666Z,99.90
2019-02-27T22:34:42.834Z,99.90
2019-02-27T22:37:09.282Z,99.90
2019-02-27T22:39:35.419Z,99.90
2019-02-27T22:42:01.841Z,99.90
2019-02-27T22:44:29.211Z,99.90
2019-02-27T22:46:56.068Z,99.90
2019-02-27T22:49:22.254Z,99.90
2019-02-27T22:51:48.472Z,99.90
2019-02-27T22:54:14.694Z,99.90
2019-02-27T22:56:40.891Z,99.90
2019-02-27T22:59:07.050Z,99.90
2019-02-27T23:01:42.695Z,99.90
2019-02-27T23:04:09.016Z,99.90
2019-02-27T23:06:35.340Z,99.90
2019-02-27T23:09:01.755Z,99.90
2019-02-27T23:11:28.093Z,99.90
2019-02-27T23:13:54.450Z,99.90
2019-02-27T23:16:20.692Z,99.90
2019-02-27T23:18:46.982Z,99.90
2019-02-27T23:21:13.340Z,99.90
2019-02-27T23:23:39.560Z,99.90
2019-02-27T23:26:06.014Z,99.90
2019-02-27T23:28:34.669Z,99.90
2019-02-27T23:31:00.141Z,99.90
2019-02-27T23:33:26.232Z,99.90
2019-02-27T23:35:52.484Z,99.90
2019-02-27T23:38:18.697Z,99.90
2019-02-27T23:40:44.957Z,99.90
2019-02-27T23:43:11.381Z,99.90
2019-02-27T23:45:37.481Z,99.90
2019-02-27T23:48:04.264Z,99.90
2019-02-27T23:50:30.445Z,99.90
2019-02-27T23:52:57.299Z,99.90
2019-02-27T23:55:23.493Z,99.90
2019-02-27T23:57:49.620Z,99.90
